Time;durP1;ratioP1;P1;durP2;ratioP2;P2;SDS_P1;SDS_P2;PMS_P1;PMS_P2;Temp;Humidity;BMP_temperature;BMP_pressure;BME280_temperature;BME280_humidity;BME280_pressure;Samples;Min_cycle;Max_cycle;Signal;HPM_P1;HPM_P2
2023/04/01 00:00:27;;;;;;;15.45;2.80;;;;;;;8.10;100.00;98993.91;5013576;28;20025;-83
2023/04/01 00:02:52;;;;;;;14.23;2.67;;;;;;;8.10;100.00;99008.22;5013519;28;20025;-83
2023/04/01 00:05:18;;;;;;;15.53;3.23;;;;;;;8.10;100.00;99008.22;4995876;28;20120;-83
2023/04/01 00:07:43;;;;;;;17.50;2.60;;;;;;;8.06;100.00;98999.81;4979709;28;20389;-83
2023/04/01 00:10:11;;;;;;;8.60;3.23;;;;;;;8.10;100.00;99002.00;4980239;28;20065;-83
2023/04/01 00:12:38;;;;;;;13.27;2.80;;;;;;;8.08;100.00;99011.16;4996282;28;20026;-84
2023/04/01 00:15:05;;;;;;;7.68;3.30;;;;;;;8.09;100.00;99006.59;4999207;28;20388;-84
2023/04/01 00:17:31;;;;;;;13.20;3.13;;;;;;;8.11;100.00;99014.47;4999478;28;20037;-83
2023/04/01 00:19:56;;;;;;;12.83;3.33;;;;;;;8.12;100.00;99018.78;4983395;28;20042;-83
2023/04/01 00:22:23;;;;;;;15.80;3.47;;;;;;;8.11;100.00;99017.16;4999669;28;20029;-83
2023/04/01 00:24:48;;;;;;;12.63;3.40;;;;;;;8.10;100.00;99008.22;5015446;28;20022;-83
2023/04/01 00:27:15;;;;;;;14.37;3.23;;;;;;;8.08;100.00;99011.16;4999301;28;20040;-83
2023/04/01 00:29:45;;;;;;;10.13;2.90;;;;;;;8.06;100.00;99007.91;4967664;28;20128;-83
2023/04/01 00:32:11;;;;;;;11.52;2.95;;;;;;;8.07;100.00;99006.84;4999595;28;20578;-83
2023/04/01 00:34:37;;;;;;;10.38;3.38;;;;;;;8.07;100.00;99031.16;4999226;28;20037;-83
2023/04/01 00:37:03;;;;;;;12.00;3.67;;;;;;;8.07;100.00;99035.72;4999318;28;20030;-83
2023/04/01 00:39:31;;;;;;;10.50;3.40;;;;;;;8.06;100.00;99029.50;4999238;28;20486;-83
2023/04/01 00:41:57;;;;;;;10.90;3.85;;;;;;;8.08;100.00;99021.16;4998996;28;20034;-83
2023/04/01 00:44:34;;;;;;;8.07;3.17;;;;;;;8.09;100.00;99028.22;4982492;28;20057;-83
2023/04/01 00:47:00;;;;;;;11.43;4.07;;;;;;;8.04;100.00;99023.53;5016592;28;20026;-83
2023/04/01 00:49:30;;;;;;;14.80;4.03;;;;;;;8.08;100.00;99026.56;4982789;28;20470;-83
2023/04/01 00:51:59;;;;;;;8.82;2.75;;;;;;;8.06;100.00;99029.50;4998911;28;20030;-83
2023/04/01 00:54:30;;;;;;;7.90;3.05;;;;;;;8.05;100.00;99029.75;5016682;28;20045;-83
2023/04/01 00:57:02;;;;;;;8.35;3.35;;;;;;;8.07;100.00;99033.88;4999604;28;20034;-83
2023/04/01 00:59:34;;;;;;;11.20;4.30;;;;;;;8.06;100.00;99045.72;5015879;28;20037;-83
2023/04/01 01:02:02;;;;;;;9.20;3.35;;;;;;;8.11;100.00;99047.69;5016355;28;20038;-83
2023/04/01 01:04:30;;;;;;;14.48;4.60;;;;;;;8.07;100.00;99038.44;4998579;28;20026;-84
2023/04/01 01:07:17;;;;;;;12.15;3.75;;;;;;;8.07;100.00;99041.97;4998488;28;20057;-83
2023/04/01 01:09:55;;;;;;;10.20;3.70;;;;;;;8.12;100.00;99037.69;5016508;28;20111;-83
2023/04/01 01:12:23;;;;;;;9.60;4.60;;;;;;;8.10;100.00;99048.75;4999374;28;20041;-83
2023/04/01 01:15:24;;;;;;;10.18;4.07;;;;;;;8.08;100.00;99042.78;4998417;28;20033;-83
2023/04/01 01:17:50;;;;;;;10.85;3.95;;;;;;;8.08;100.00;99043.59;4988178;28;20046;-83
2023/04/01 01:20:40;;;;;;;13.50;4.70;;;;;;;8.06;100.00;99045.72;4998615;28;20034;-83
2023/04/01 01:23:27;;;;;;;12.02;4.68;;;;;;;8.10;100.00;99056.84;5016270;28;20026;-82
2023/04/01 01:26:37;;;;;;;11.32;4.90;;;;;;;8.09;100.00;99047.13;4997119;28;20066;-83
2023/04/01 01:29:27;;;;;;;6.82;3.38;;;;;;;8.11;100.00;99042.28;4998781;28;20052;-84
2023/04/01 01:32:27;;;;;;;9.52;4.60;;;;;;;8.08;100.00;99065.19;4998395;28;20038;-83
2023/04/01 01:35:10;;;;;;;11.52;4.78;;;;;;;8.09;100.00;99060.63;5015683;28;20036;-83
2023/04/01 01:37:39;;;;;;;14.38;6.28;;;;;;;8.12;100.00;99053.91;4997974;28;20045;-83
2023/04/01 01:40:08;;;;;;;17.85;7.32;;;;;;;8.08;100.00;99048.19;4997949;28;20487;-83
2023/04/01 01:42:37;;;;;;;20.08;7.10;;;;;;;8.09;100.00;99060.63;4998726;28;20477;-83
2023/04/01 01:45:05;;;;;;;18.40;7.50;;;;;;;8.10;100.00;99064.94;4997717;28;20049;-84
2023/04/01 01:47:32;;;;;;;21.27;8.55;;;;;;;8.12;100.00;99067.41;4997706;28;20038;-83
2023/04/01 01:49:59;;;;;;;23.92;8.98;;;;;;;8.10;100.00;99072.25;5014989;28;20034;-84
2023/04/01 01:52:28;;;;;;;13.30;6.47;;;;;;;8.13;100.00;99079.88;5015752;28;20108;-84
2023/04/01 01:54:56;;;;;;;21.95;9.13;;;;;;;8.04;100.00;99074.03;5015310;28;20064;-83
2023/04/01 01:57:33;;;;;;;23.80;9.10;;;;;;;8.04;100.00;99077.53;5015523;28;20058;-83
2023/04/01 02:00:12;;;;;;;24.33;9.90;;;;;;;8.01;100.00;99093.44;4998482;28;20454;-83
2023/04/01 02:02:40;;;;;;;24.23;10.35;;;;;;;8.01;100.00;99098.81;4997972;28;20034;-83
2023/04/01 02:05:10;;;;;;;26.90;9.88;;;;;;;7.98;100.00;99089.31;4998216;28;20042;-83
2023/04/01 02:07:39;;;;;;;27.40;9.60;;;;;;;7.98;100.00;99078.50;4997744;28;20025;-83
2023/04/01 02:10:06;;;;;;;30.27;10.18;;;;;;;7.97;100.00;99089.56;4997431;28;20061;-84
2023/04/01 02:12:34;;;;;;;27.40;10.05;;;;;;;7.94;100.00;99082.75;4982055;28;20541;-83
2023/04/01 02:15:06;;;;;;;32.33;11.35;;;;;;;7.94;100.00;99090.84;4997608;28;20477;-84
2023/04/01 02:17:34;;;;;;;27.52;10.35;;;;;;;7.92;100.00;99090.28;4997303;28;20026;-83
2023/04/01 02:20:05;;;;;;;29.73;10.35;;;;;;;7.93;100.00;99091.94;4997455;28;20057;-83
2023/04/01 02:22:38;;;;;;;36.53;12.32;;;;;;;7.90;100.00;99097.81;5014730;28;20049;-84
2023/04/01 02:25:28;;;;;;;40.55;12.32;;;;;;;7.90;100.00;99108.63;5013182;28;20088;-83
2023/04/01 02:27:56;;;;;;;37.28;11.88;;;;;;;7.88;100.00;99097.22;4989278;28;20038;-83
2023/04/01 02:30:23;;;;;;;36.72;11.30;;;;;;;7.88;100.00;99099.91;4997575;28;20030;-83
2023/04/01 02:32:49;;;;;;;35.75;10.90;;;;;;;7.87;100.00;99096.41;4996970;28;20044;-83
2023/04/01 02:35:17;;;;;;;47.95;12.40;;;;;;;7.86;100.00;99088.56;4981288;28;20037;-83
2023/04/01 02:37:43;;;;;;;43.47;12.25;;;;;;;7.85;100.00;99098.53;4988991;28;20180;-84
2023/04/01 02:40:12;;;;;;;54.35;14.98;;;;;;;7.84;100.00;99113.09;4996539;28;20036;-84
2023/04/01 02:42:37;;;;;;;50.92;13.00;;;;;;;7.85;100.00;99095.84;4996806;28;20539;-84
2023/04/01 02:45:03;;;;;;;48.33;12.73;;;;;;;7.85;100.00;99101.25;4977957;28;20145;-83
2023/04/01 02:47:29;;;;;;;53.08;14.80;;;;;;;7.88;100.00;99102.63;4976823;28;20037;-83
2023/04/01 02:49:58;;;;;;;57.60;15.00;;;;;;;7.84;100.00;99107.69;4944906;28;20116;-83
2023/04/01 02:52:24;;;;;;;55.45;14.30;;;;;;;7.83;100.00;99102.53;4946848;28;20125;-83
2023/04/01 02:54:52;;;;;;;59.90;14.30;;;;;;;7.82;100.00;99109.78;4977427;28;20139;-84
2023/04/01 02:57:18;;;;;;;58.72;15.00;;;;;;;7.82;100.00;99115.19;4961810;28;20034;-83
2023/04/01 02:59:43;;;;;;;64.73;14.07;;;;;;;7.80;100.00;99106.53;4961946;28;20469;-83
2023/04/01 03:02:09;;;;;;;53.95;13.88;;;;;;;7.84;100.00;99114.97;4976971;28;20051;-83
2023/04/01 03:04:34;;;;;;;49.37;12.60;;;;;;;7.84;100.00;99117.66;4961022;28;20121;-83
2023/04/01 03:07:00;;;;;;;57.27;13.13;;;;;;;7.81;100.00;99110.88;4960619;28;20034;-83
2023/04/01 03:09:25;;;;;;;51.92;12.18;;;;;;;7.83;100.00;99118.75;4944936;28;20034;-83
2023/04/01 03:11:51;;;;;;;64.60;14.85;;;;;;;7.83;100.00;99129.53;4961450;28;20065;-83
2023/04/01 03:14:16;;;;;;;51.37;14.17;;;;;;;7.81;100.00;99124.38;4960858;28;20031;-83
2023/04/01 03:16:42;;;;;;;46.53;12.37;;;;;;;7.81;100.00;99127.09;4960616;28;20100;-83
2023/04/01 03:19:07;;;;;;;50.57;12.67;;;;;;;7.82;100.00;99125.19;4976903;28;20042;-83
2023/04/01 03:21:32;;;;;;;47.00;11.75;;;;;;;7.78;100.00;99132.97;4976753;28;20107;-83
2023/04/01 03:23:58;;;;;;;52.23;12.33;;;;;;;7.80;100.00;99135.41;4960855;28;20026;-83
2023/04/01 03:26:26;;;;;;;54.27;13.17;;;;;;;7.79;100.00;99134.56;4994191;28;20463;-83
2023/04/01 03:28:51;;;;;;;52.65;12.40;;;;;;;7.77;100.00;99142.09;4960978;28;20034;-83
2023/04/01 03:31:17;;;;;;;57.47;13.37;;;;;;;7.80;100.00;99143.53;4961042;28;20034;-83
2023/04/01 03:33:43;;;;;;;53.22;13.70;;;;;;;7.79;100.00;99147.28;4960363;28;20292;-83
2023/04/01 03:36:08;;;;;;;54.10;13.30;;;;;;;7.79;100.00;99139.16;4960690;28;20041;-83
2023/04/01 03:38:35;;;;;;;54.90;13.25;;;;;;;7.76;100.00;99142.34;4976749;28;20089;-82
2023/04/01 03:41:00;;;;;;;54.97;13.40;;;;;;;7.79;100.00;99150.78;4976661;28;20031;-83
2023/04/01 03:43:26;;;;;;;56.13;12.27;;;;;;;7.79;100.00;99137.28;4995442;28;20100;-83
2023/04/01 03:45:52;;;;;;;38.40;10.60;;;;;;;7.80;100.00;99148.91;4979933;28;20042;-83
2023/04/01 03:48:18;;;;;;;49.13;12.07;;;;;;;7.77;100.00;99144.81;4997529;28;20390;-84
2023/04/01 03:50:44;;;;;;;48.45;12.05;;;;;;;7.77;100.00;99146.69;4983333;28;20605;-83
2023/04/01 03:53:12;;;;;;;43.20;10.18;;;;;;;7.76;100.00;99153.97;4999549;28;20024;-83
2023/04/01 03:55:39;;;;;;;33.87;8.90;;;;;;;7.76;100.00;99164.75;4984791;28;20531;-84
2023/04/01 03:58:06;;;;;;;46.28;11.10;;;;;;;7.74;100.00;99150.69;5000178;28;20021;-83
2023/04/01 04:00:31;;;;;;;46.13;11.23;;;;;;;7.75;100.00;99167.69;4999497;28;20041;-83
2023/04/01 04:02:57;;;;;;;42.73;10.73;;;;;;;7.75;100.00;99163.13;4999862;28;20025;-82
2023/04/01 04:05:24;;;;;;;45.47;9.98;;;;;;;7.75;100.00;99160.44;4999519;28;20037;-83
2023/04/01 04:07:50;;;;;;;45.63;11.18;;;;;;;7.75;100.00;99160.44;4999565;28;20030;-83
2023/04/01 04:10:16;;;;;;;31.17;8.10;;;;;;;7.72;100.00;99169.81;4999635;28;20037;-83
2023/04/01 04:12:41;;;;;;;43.92;10.40;;;;;;;7.72;100.00;99174.38;4999660;28;20680;-83
2023/04/01 04:15:08;;;;;;;34.60;9.40;;;;;;;7.72;100.00;99179.78;5016931;28;20026;-83
2023/04/01 04:17:33;;;;;;;39.38;9.30;;;;;;;7.71;100.00;99184.38;5017391;28;20034;-83
2023/04/01 04:19:59;;;;;;;31.10;8.50;;;;;;;7.69;100.00;99181.09;4983277;28;20083;-83
2023/04/01 04:22:25;;;;;;;39.53;8.23;;;;;;;7.70;100.00;99192.72;5016855;28;20775;-83
2023/04/01 04:24:50;;;;;;;36.37;8.20;;;;;;;7.68;100.00;99179.44;5016738;28;20485;-84
2023/04/01 04:27:16;;;;;;;33.20;8.35;;;;;;;7.68;100.00;99184.84;4999697;28;20029;-83
2023/04/01 04:29:41;;;;;;;28.70;7.30;;;;;;;7.67;100.00;99202.09;5017161;28;20522;-83
2023/04/01 04:32:06;;;;;;;31.83;8.47;;;;;;;7.66;100.00;99195.06;4999269;28;20038;-83
2023/04/01 04:34:32;;;;;;;25.07;7.10;;;;;;;7.68;100.00;99190.25;4983470;28;20025;-83
2023/04/01 04:36:57;;;;;;;31.08;7.30;;;;;;;7.65;100.00;99187.22;4982610;28;20034;-83
2023/04/01 04:39:23;;;;;;;31.57;7.33;;;;;;;7.64;100.00;99193.66;4999119;28;20125;-83
2023/04/01 04:41:48;;;;;;;26.30;6.60;;;;;;;7.63;100.00;99197.41;4999176;28;20061;-83
2023/04/01 04:44:14;;;;;;;24.67;6.27;;;;;;;7.61;100.00;99200.34;4995500;28;20475;-83
2023/04/01 04:46:39;;;;;;;23.70;6.85;;;;;;;7.56;100.00;99194.84;4982600;28;20041;-83
2023/04/01 04:49:05;;;;;;;23.87;6.40;;;;;;;7.55;100.00;99199.41;4999366;28;20033;-83
2023/04/01 04:51:33;;;;;;;23.33;6.10;;;;;;;7.57;100.00;99195.66;4998902;28;20441;-83
2023/04/01 04:53:59;;;;;;;19.67;5.50;;;;;;;7.54;100.00;99210.44;4999131;28;20029;-83
2023/04/01 04:56:25;;;;;;;21.50;6.50;;;;;;;7.50;100.00;99204.72;4998421;28;20026;-84
2023/04/01 04:58:51;;;;;;;21.55;6.28;;;;;;;7.53;100.00;99206.13;4982437;28;20040;-83
2023/04/01 05:01:17;;;;;;;23.10;6.47;;;;;;;7.49;100.00;99207.66;4998826;28;20026;-83
2023/04/01 05:03:43;;;;;;;20.40;5.53;;;;;;;7.48;100.00;99219.47;5016823;28;20076;-83
2023/04/01 05:06:11;;;;;;;20.25;5.60;;;;;;;7.47;100.00;99215.97;4998524;28;20450;-83
2023/04/01 05:08:38;;;;;;;21.17;5.38;;;;;;;7.46;100.00;99224.31;5016378;28;20029;-84
2023/04/01 05:11:06;;;;;;;20.90;5.03;;;;;;;7.46;100.00;99219.72;4998751;28;20029;-83
2023/04/01 05:13:31;;;;;;;16.03;4.87;;;;;;;7.42;100.00;99215.84;4999090;28;20092;-83
2023/04/01 05:15:57;;;;;;;14.68;4.65;;;;;;;7.44;100.00;99243.44;5016351;28;20374;-83
2023/04/01 05:18:22;;;;;;;22.70;4.63;;;;;;;7.43;100.00;99227.47;4982187;28;20436;-83
2023/04/01 05:20:48;;;;;;;17.67;4.40;;;;;;;7.46;100.00;99254.00;4998699;28;20030;-83
2023/04/01 05:23:13;;;;;;;22.03;5.70;;;;;;;7.43;100.00;99252.56;4998654;28;20033;-83
2023/04/01 05:25:38;;;;;;;17.93;4.57;;;;;;;7.41;100.00;99243.91;4982737;28;20060;-83
2023/04/01 05:28:04;;;;;;;18.58;4.85;;;;;;;7.43;100.00;99246.38;4998253;28;20104;-83
2023/04/01 05:30:29;;;;;;;14.68;3.97;;;;;;;7.42;100.00;99255.50;4998856;28;20458;-82
2023/04/01 05:32:55;;;;;;;16.73;4.40;;;;;;;7.43;100.00;99259.84;4982321;28;20108;-84
2023/04/01 05:35:20;;;;;;;15.33;4.50;;;;;;;7.44;100.00;99269.56;4981908;28;20188;-85
2023/04/01 05:37:45;;;;;;;19.83;5.37;;;;;;;7.46;100.00;99259.38;4981826;28;20033;-84
2023/04/01 05:40:11;;;;;;;21.80;5.53;;;;;;;7.42;100.00;99275.22;4998264;28;20039;-85
2023/04/01 05:42:36;;;;;;;17.38;4.80;;;;;;;7.45;100.00;99280.13;5015525;28;20466;-84
2023/04/01 05:45:02;;;;;;;15.97;4.50;;;;;;;7.45;100.00;99279.31;4981886;28;20489;-83
2023/04/01 05:47:27;;;;;;;24.27;5.47;;;;;;;7.44;100.00;99277.66;4998314;28;20108;-85
2023/04/01 05:49:53;;;;;;;20.37;5.70;;;;;;;7.46;100.00;99286.38;4965137;28;20481;-85
2023/04/01 05:52:18;;;;;;;26.90;5.65;;;;;;;7.46;100.00;99284.47;4965464;28;20092;-86
2023/04/01 05:54:44;;;;;;;24.97;5.77;;;;;;;7.48;100.00;99289.66;4997699;28;20038;-84
2023/04/01 05:57:09;;;;;;;26.70;6.37;;;;;;;7.46;100.00;99289.06;4981296;28;20065;-84
2023/04/01 05:59:35;;;;;;;25.80;6.07;;;;;;;7.51;100.00;99299.97;4997689;28;20106;-84
2023/04/01 06:02:01;;;;;;;30.23;7.10;;;;;;;7.50;100.00;99292.91;4997576;28;20366;-84
2023/04/01 06:04:32;;;;;;;32.77;7.23;;;;;;;7.52;100.00;99304.31;4997498;28;20030;-85
2023/04/01 06:06:58;;;;;;;31.17;6.80;;;;;;;7.51;100.00;99298.13;5015141;28;20056;-83
2023/04/01 06:09:29;;;;;;;37.67;7.10;;;;;;;7.52;100.00;99318.63;4997472;28;20416;-83
2023/04/01 06:12:12;;;;;;;32.90;7.32;;;;;;;7.51;100.00;99317.00;4997056;28;20037;-84
2023/04/01 06:15:20;;;;;;;40.67;7.07;;;;;;;7.57;100.00;99328.72;4996996;28;20076;-86
2023/04/01 06:17:49;;;;;;;36.35;7.22;;;;;;;7.59;100.00;99336.59;4997596;28;20462;-84
2023/04/01 06:20:40;;;;;;;36.08;7.50;;;;;;;7.58;100.00;99327.69;4997107;28;20121;-85
2023/04/01 06:23:08;;;;;;;38.00;8.37;;;;;;;7.59;100.00;99325.78;5014368;28;20037;-85
2023/04/01 06:26:14;;;;;;;33.60;7.70;;;;;;;7.61;100.00;99340.72;4996912;28;20048;-85
2023/04/01 06:29:16;;;;;;;38.60;7.80;;;;;;;7.63;100.00;99348.56;4997564;28;20124;-85
2023/04/01 06:31:59;;;;;;;36.20;8.30;;;;;;;7.60;100.00;99349.84;4997250;28;20493;-85
2023/04/01 06:34:39;;;;;;;38.95;7.78;;;;;;;7.64;100.00;99355.63;5014304;28;20057;-85
2023/04/01 06:37:11;;;;;;;42.17;8.83;;;;;;;7.67;100.00;99344.34;4997236;28;20036;-85
2023/04/01 06:40:07;;;;;;;43.20;9.00;;;;;;;7.68;100.00;99356.81;4996853;28;20068;-85
2023/04/01 06:43:07;;;;;;;39.13;8.45;;;;;;;7.70;100.00;99349.28;4997306;28;20407;-85
2023/04/01 06:45:46;;;;;;;53.67;10.30;;;;;;;7.74;100.00;99361.28;4996339;28;20037;-85
2023/04/01 06:49:06;;;;;;;51.58;10.75;;;;;;;7.78;100.00;99365.16;5014894;28;20137;-85
2023/04/01 06:52:09;;;;;;;53.00;10.60;;;;;;;7.83;100.00;99375.25;4989982;28;20045;-85
2023/04/01 06:54:40;;;;;;;50.28;11.38;;;;;;;7.86;100.00;99391.00;4979166;28;20372;-85
2023/04/01 06:57:14;;;;;;;64.85;13.65;;;;;;;7.85;100.00;99368.56;5013278;28;20385;-85
2023/04/01 06:59:40;;;;;;;63.25;14.15;;;;;;;7.92;100.00;99387.34;4997343;28;20088;-85
2023/04/01 07:02:37;;;;;;;65.40;14.63;;;;;;;7.98;100.00;99394.50;5013836;28;20482;-84
2023/04/01 07:05:05;;;;;;;73.83;15.83;;;;;;;8.01;100.00;99385.94;4971571;28;20471;-85
2023/04/01 07:08:05;;;;;;;75.35;16.65;;;;;;;8.07;100.00;99395.00;4996886;28;20101;-85
2023/04/01 07:10:42;;;;;;;72.25;16.67;;;;;;;8.07;100.00;99389.59;4965148;28;20045;-85
2023/04/01 07:13:19;;;;;;;81.53;17.35;;;;;;;8.15;100.00;99396.50;5014638;28;20462;-85
2023/04/01 07:16:08;;;;;;;82.03;20.02;;;;;;;8.17;100.00;99399.81;4996720;28;20077;-84
2023/04/01 07:18:48;;;;;;;83.83;19.80;;;;;;;8.20;100.00;99402.03;5014542;28;20042;-84
2023/04/01 07:21:25;;;;;;;87.88;18.90;;;;;;;8.23;100.00;99407.78;4996232;28;20049;-85
2023/04/01 07:23:53;;;;;;;91.55;20.67;;;;;;;8.25;100.00;99410.25;5013333;28;20033;-85
2023/04/01 07:26:26;;;;;;;95.72;20.95;;;;;;;8.22;100.00;99416.13;5013806;28;20076;-86
2023/04/01 07:28:53;;;;;;;103.47;21.77;;;;;;;8.30;100.00;99417.66;5013360;28;20044;-85
2023/04/01 07:32:06;;;;;;;95.00;21.60;;;;;;;8.32;100.00;99429.06;4995721;28;20029;-85
2023/04/01 07:34:46;;;;;;;93.38;20.88;;;;;;;8.30;100.00;99439.28;4952770;29;20049;-86
2023/04/01 07:37:22;;;;;;;101.97;22.23;;;;;;;8.31;100.00;99433.66;5007083;28;20068;-85
2023/04/01 07:40:19;;;;;;;106.78;23.58;;;;;;;8.35;100.00;99434.81;5013877;28;20040;-85
2023/04/01 07:42:57;;;;;;;92.10;22.15;;;;;;;8.37;100.00;99456.19;5014092;28;20029;-85
2023/04/01 07:45:57;;;;;;;94.30;23.03;;;;;;;8.36;100.00;99447.28;4996097;28;20038;-84
2023/04/01 07:48:32;;;;;;;93.07;22.52;;;;;;;8.33;100.00;99447.75;4995755;28;20038;-85
2023/04/01 07:51:20;;;;;;;98.28;24.52;;;;;;;8.31;100.00;99454.44;5014071;28;20029;-84
2023/04/01 07:54:03;;;;;;;91.15;23.38;;;;;;;8.29;100.00;99459.25;4995957;28;20125;-85
2023/04/01 07:56:46;;;;;;;93.03;23.20;;;;;;;8.34;100.00;99467.47;4996165;28;20225;-85
2023/04/01 07:59:11;;;;;;;89.47;24.13;;;;;;;8.32;100.00;99481.22;5013161;28;20065;-84
2023/04/01 08:01:55;;;;;;;94.45;25.52;;;;;;;8.28;100.00;99474.63;4995970;28;20068;-84
2023/04/01 08:04:36;;;;;;;84.97;22.80;;;;;;;8.28;100.00;99468.41;4996067;28;20127;-85
2023/04/01 08:07:12;;;;;;;87.82;23.10;;;;;;;8.28;100.00;99471.13;4996566;28;20041;-84
2023/04/01 08:09:46;;;;;;;85.65;23.83;;;;;;;8.36;100.00;99485.09;4995784;28;20045;-84
2023/04/01 08:12:31;;;;;;;86.35;23.83;;;;;;;8.57;100.00;99482.91;4995898;28;20425;-88
2023/04/01 08:15:10;;;;;;;73.13;21.63;;;;;;;8.68;100.00;99502.88;4995779;28;20404;-85
2023/04/01 08:18:03;;;;;;;83.27;23.03;;;;;;;8.78;100.00;99492.28;4995362;28;20125;-85
2023/04/01 08:20:39;;;;;;;85.32;24.30;;;;;;;8.85;100.00;99494.88;5013494;28;20091;-85
2023/04/01 08:23:19;;;;;;;83.18;24.20;;;;;;;8.94;100.00;99490.75;4995751;28;20037;-85
2023/04/01 08:26:26;;;;;;;89.85;25.10;;;;;;;9.04;100.00;99501.78;4996430;28;20029;-85
2023/04/01 08:29:05;;;;;;;65.60;21.98;;;;;;;8.97;100.00;99511.09;4979329;28;20050;-85
2023/04/01 08:31:46;;;;;;;70.90;21.73;;;;;;;8.89;100.00;99507.69;5013452;28;20109;-86
2023/04/01 08:34:22;;;;;;;59.58;21.15;;;;;;;8.86;100.00;99513.59;4997266;28;20486;-85
2023/04/01 08:36:57;;;;;;;52.05;19.75;;;;;;;8.77;100.00;99510.41;4999141;28;20032;-84
2023/04/01 08:39:34;;;;;;;49.67;21.20;;;;;;;8.75;100.00;99522.53;4999659;28;20041;-84
2023/04/01 08:41:59;;;;;;;44.10;18.40;;;;;;;8.73;100.00;99516.53;4999601;28;20042;-85
2023/04/01 08:44:39;;;;;;;53.73;19.60;;;;;;;8.70;100.00;99525.13;5016305;28;20552;-84
2023/04/01 08:47:26;;;;;;;52.63;19.77;;;;;;;8.75;100.00;99531.47;4998894;28;20037;-85
2023/04/01 08:49:57;;;;;;;54.07;19.00;;;;;;;8.85;100.00;99530.06;4998762;28;20065;-85
2023/04/01 08:52:36;;;;;;;47.53;18.75;;;;;;;8.96;100.00;99531.91;4999261;28;20112;-85
2023/04/01 08:55:05;;;;;;;47.85;19.83;;;;;;;9.08;100.00;99548.13;4999342;28;20064;-85
2023/04/01 08:57:39;;;;;;;44.90;19.40;;;;;;;9.15;100.00;99554.22;4999200;28;20152;-85
2023/04/01 09:00:08;;;;;;;43.05;18.58;;;;;;;9.16;100.00;99555.88;4998628;28;20041;-85
2023/04/01 09:02:58;;;;;;;42.63;19.47;;;;;;;9.26;100.00;99545.28;4998585;28;20389;-85
2023/04/01 09:06:05;;;;;;;40.90;18.25;;;;;;;9.27;100.00;99551.50;5016196;28;20137;-85
2023/04/01 09:08:33;;;;;;;33.70;16.25;;;;;;;9.29;100.00;99554.81;4977969;28;20092;-85
2023/04/01 09:11:07;;;;;;;29.77;15.15;;;;;;;9.50;100.00;99561.47;5015843;28;20030;-85
2023/04/01 09:13:49;;;;;;;25.42;13.05;;;;;;;9.63;100.00;99555.78;5016180;28;20417;-85
2023/04/01 09:16:48;;;;;;;26.43;13.67;;;;;;;9.51;100.00;99568.53;5016044;28;20038;-85
2023/04/01 09:19:41;;;;;;;20.70;11.95;;;;;;;9.46;100.00;99574.69;4998785;28;20033;-85
2023/04/01 09:22:15;;;;;;;17.90;11.00;;;;;;;9.44;100.00;99598.44;4998638;28;20034;-85
2023/04/01 09:24:56;;;;;;;20.55;11.93;;;;;;;9.42;100.00;99580.78;4998144;28;20386;-85
2023/04/01 09:27:34;;;;;;;17.13;11.43;;;;;;;9.51;100.00;99576.66;4998376;28;20061;-86
2023/04/01 09:30:41;;;;;;;24.50;12.20;;;;;;;9.53;100.00;99592.66;4998111;28;20084;-85
2023/04/01 09:33:28;;;;;;;17.13;11.23;;;;;;;9.43;100.00;99587.84;4938831;29;20035;-85
2023/04/01 09:36:23;;;;;;;19.88;11.93;;;;;;;9.38;100.00;99585.84;4938928;29;20087;-85
2023/04/01 09:39:06;;;;;;;18.35;10.38;;;;;;;9.34;100.00;99592.00;5000943;28;20053;-85
2023/04/01 09:42:07;;;;;;;16.13;9.98;;;;;;;9.25;100.00;99591.53;4997483;28;20494;-85
2023/04/01 09:44:35;;;;;;;13.43;9.20;;;;;;;9.23;100.00;99597.19;5015345;28;20069;-85
2023/04/01 09:47:27;;;;;;;15.65;10.18;;;;;;;9.22;100.00;99617.19;4997029;28;20335;-86
2023/04/01 09:50:20;;;;;;;13.15;8.60;;;;;;;9.21;100.00;99618.25;4998268;28;20034;-86
2023/04/01 09:53:12;;;;;;;15.35;9.55;;;;;;;9.21;100.00;99612.00;4997347;28;20021;-87
2023/04/01 09:56:09;;;;;;;16.98;9.48;;;;;;;9.26;100.00;99620.25;4997380;28;20057;-85
2023/04/01 09:59:12;;;;;;;15.23;8.70;;;;;;;9.29;100.00;99614.38;4997895;28;20046;-86
2023/04/01 10:02:04;;;;;;;17.02;9.90;;;;;;;9.27;100.00;99614.59;4996987;28;20029;-85
2023/04/01 10:05:07;;;;;;;16.20;8.75;;;;;;;9.35;100.00;99618.81;4997858;28;20566;-86
2023/04/01 10:08:13;;;;;;;19.00;9.43;;;;;;;9.32;100.00;99621.19;5014594;28;20034;-86
2023/04/01 10:11:19;;;;;;;19.08;9.88;;;;;;;9.39;100.00;99628.13;4997202;28;20045;-85
2023/04/01 10:14:35;;;;;;;17.97;9.90;;;;;;;9.41;100.00;99644.13;5014576;28;20025;-85
2023/04/01 10:17:14;;;;;;;15.20;9.85;;;;;;;9.33;100.00;99634.50;4954164;29;20056;-85
2023/04/01 10:19:55;;;;;;;15.57;10.50;;;;;;;9.29;100.00;99634.13;4954231;29;20042;-85
2023/04/01 10:22:49;;;;;;;19.10;10.52;;;;;;;9.24;100.00;99636.72;4976590;28;20042;-88
2023/04/01 10:25:42;;;;;;;17.70;10.68;;;;;;;9.08;100.00;99646.38;5015204;28;20026;-85
2023/04/01 10:28:55;;;;;;;19.77;12.07;;;;;;;9.07;100.00;99652.03;4996924;28;20038;-85
2023/04/01 10:31:35;;;;;;;17.13;11.18;;;;;;;8.99;100.00;99653.19;4996373;28;20048;-85
2023/04/01 10:34:24;;;;;;;21.52;12.75;;;;;;;8.94;100.00;99656.56;5014282;28;20033;-88
2023/04/01 10:36:58;;;;;;;21.95;12.35;;;;;;;8.98;100.00;99645.31;4997045;28;20119;-86
2023/04/01 10:39:33;;;;;;;22.58;13.25;;;;;;;9.00;100.00;99657.53;5014422;28;20069;-85
2023/04/01 10:42:21;;;;;;;24.90;13.30;;;;;;;9.05;100.00;99659.53;4996390;28;20049;-85
2023/04/01 10:45:21;;;;;;;21.88;12.32;;;;;;;8.90;100.00;99666.25;5014131;28;20486;-86
2023/04/01 10:48:30;;;;;;;22.42;12.30;;;;;;;8.95;100.00;99668.25;4996896;28;20030;-86
2023/04/01 10:51:17;;;;;;;25.13;13.25;;;;;;;9.06;100.00;99670.13;4967305;28;20042;-85
2023/04/01 10:54:15;;;;;;;21.65;12.10;;;;;;;9.03;100.00;99667.06;5014194;28;20037;-86
2023/04/01 10:56:54;;;;;;;24.33;12.73;;;;;;;9.07;100.00;99676.38;4997232;28;20034;-86
2023/04/01 11:00:00;;;;;;;22.55;12.65;;;;;;;9.05;100.00;99673.91;4996819;28;20037;-85
2023/04/01 11:03:03;;;;;;;23.33;12.38;;;;;;;8.92;100.00;99683.06;5013683;28;20022;-85
2023/04/01 11:05:41;;;;;;;20.65;12.20;;;;;;;8.86;100.00;99677.75;4996527;28;20084;-86
2023/04/01 11:08:37;;;;;;;26.48;13.60;;;;;;;8.86;100.00;99675.03;4996325;28;20062;-85
2023/04/01 11:11:17;;;;;;;24.73;13.00;;;;;;;8.86;100.00;99669.63;5013983;28;20030;-85
2023/04/01 11:14:20;;;;;;;28.67;14.23;;;;;;;8.88;100.00;99686.47;4997087;28;20038;-86
2023/04/01 11:16:58;;;;;;;26.10;14.43;;;;;;;9.01;100.00;99688.13;4996282;28;20067;-85
2023/04/01 11:19:42;;;;;;;26.95;13.70;;;;;;;9.10;100.00;99689.44;4996285;28;20038;-85
2023/04/01 11:22:28;;;;;;;24.98;14.30;;;;;;;9.21;100.00;99699.44;5013478;28;20474;-87
2023/04/01 11:25:15;;;;;;;25.57;13.67;;;;;;;9.28;100.00;99697.44;4996520;28;20382;-85
2023/04/01 11:28:06;;;;;;;23.35;13.38;;;;;;;9.33;100.00;99696.75;5013752;28;20029;-86
2023/04/01 11:31:04;;;;;;;19.05;10.95;;;;;;;9.30;100.00;99706.16;4995256;28;20573;-86
2023/04/01 11:34:02;;;;;;;16.80;11.65;;;;;;;9.22;100.00;99711.09;4996041;28;20363;-86
2023/04/01 11:36:43;;;;;;;22.17;12.18;;;;;;;9.23;100.00;99708.16;4996629;28;20036;-86
2023/04/01 11:39:14;;;;;;;19.40;11.73;;;;;;;9.20;100.00;99713.22;5013472;28;20084;-86
2023/04/01 11:42:00;;;;;;;21.08;12.65;;;;;;;9.17;100.00;99710.94;4995918;28;20026;-86
2023/04/01 11:44:53;;;;;;;22.73;13.75;;;;;;;9.16;100.00;99701.22;5013963;28;20056;-85
2023/04/01 11:48:03;;;;;;;22.35;13.60;;;;;;;9.19;100.00;99714.25;4996288;28;20037;-86
2023/04/01 11:50:32;;;;;;;23.73;12.98;;;;;;;9.21;100.00;99729.22;4995855;28;20407;-85
2023/04/01 11:53:16;;;;;;;24.47;12.90;;;;;;;9.26;100.00;99728.53;5013367;28;20030;-85
2023/04/01 11:56:14;;;;;;;20.48;11.85;;;;;;;9.16;100.00;99720.97;4995935;28;20052;-86
2023/04/01 11:58:54;;;;;;;23.88;12.13;;;;;;;9.02;100.00;99735.75;4985594;28;20033;-85
2023/04/01 12:01:54;;;;;;;20.60;11.48;;;;;;;8.99;100.00;99737.06;4995819;28;20029;-86
2023/04/01 12:04:42;;;;;;;21.58;11.90;;;;;;;9.02;100.00;99733.06;4995930;28;20080;-85